sensor_id;sensor_type;location;lat;lon;timestamp;temperature;humidity
72883;DHT22;61017;37.812;-122.286;2023-05-10T00:01:19;15.30;93.10
72883;DHT22;61017;37.812;-122.286;2023-05-10T00:02:50;15.30;93.10
72883;DHT22;61017;37.812;-122.286;2023-05-10T00:04:22;15.30;93.10
72883;DHT22;61017;37.812;-122.286;2023-05-10T00:05:53;15.30;93.10
72883;DHT22;61017;37.812;-122.286;2023-05-10T00:07:25;15.30;93.50
72883;DHT22;61017;37.812;-122.286;2023-05-10T00:08:57;15.30;93.10
72883;DHT22;61017;37.812;-122.286;2023-05-10T00:10:28;15.30;93.20
72883;DHT22;61017;37.812;-122.286;2023-05-10T00:12:00;15.30;93.20
72883;DHT22;61017;37.812;-122.286;2023-05-10T00:13:31;15.30;93.50
72883;DHT22;61017;37.812;-122.286;2023-05-10T00:15:03;15.30;93.20
72883;DHT22;61017;37.812;-122.286;2023-05-10T00:16:35;15.30;93.20
72883;DHT22;61017;37.812;-122.286;2023-05-10T00:18:07;15.30;93.20
72883;DHT22;61017;37.812;-122.286;2023-05-10T00:19:38;15.30;93.20
72883;DHT22;61017;37.812;-122.286;2023-05-10T00:21:10;15.30;93.20
72883;DHT22;61017;37.812;-122.286;2023-05-10T00:22:41;15.30;93.20
72883;DHT22;61017;37.812;-122.286;2023-05-10T00:24:13;15.30;93.20
72883;DHT22;61017;37.812;-122.286;2023-05-10T00:25:44;15.30;93.50
72883;DHT22;61017;37.812;-122.286;2023-05-10T00:27:16;15.30;93.20
72883;DHT22;61017;37.812;-122.286;2023-05-10T00:28:48;15.30;93.20
72883;DHT22;61017;37.812;-122.286;2023-05-10T00:30:20;15.30;93.20
72883;DHT22;61017;37.812;-122.286;2023-05-10T00:31:51;15.30;93.20
72883;DHT22;61017;37.812;-122.286;2023-05-10T00:33:23;15.30;93.20
72883;DHT22;61017;37.812;-122.286;2023-05-10T00:34:54;15.30;93.20
72883;DHT22;61017;37.812;-122.286;2023-05-10T00:36:26;15.30;93.20
72883;DHT22;61017;37.812;-122.286;2023-05-10T00:37:58;15.30;93.20
72883;DHT22;61017;37.812;-122.286;2023-05-10T00:39:30;15.30;93.20
72883;DHT22;61017;37.812;-122.286;2023-05-10T00:41:01;15.30;93.20
72883;DHT22;61017;37.812;-122.286;2023-05-10T00:42:33;15.40;93.30
72883;DHT22;61017;37.812;-122.286;2023-05-10T00:44:04;15.40;93.30
72883;DHT22;61017;37.812;-122.286;2023-05-10T00:45:37;15.30;93.20
72883;DHT22;61017;37.812;-122.286;2023-05-10T00:47:09;15.30;93.20
72883;DHT22;61017;37.812;-122.286;2023-05-10T00:48:45;15.40;93.30
72883;DHT22;61017;37.812;-122.286;2023-05-10T00:50:16;15.30;93.20
72883;DHT22;61017;37.812;-122.286;2023-05-10T00:51:48;15.40;93.30
72883;DHT22;61017;37.812;-122.286;2023-05-10T00:53:20;15.40;93.30
72883;DHT22;61017;37.812;-122.286;2023-05-10T00:54:52;15.30;93.20
72883;DHT22;61017;37.812;-122.286;2023-05-10T00:56:25;15.30;93.20
72883;DHT22;61017;37.812;-122.286;2023-05-10T00:57:57;15.30;93.20
72883;DHT22;61017;37.812;-122.286;2023-05-10T00:59:29;15.30;93.20
72883;DHT22;61017;37.812;-122.286;2023-05-10T01:01:01;15.40;93.30
72883;DHT22;61017;37.812;-122.286;2023-05-10T01:02:34;15.30;93.20
72883;DHT22;61017;37.812;-122.286;2023-05-10T01:04:06;15.30;93.40
72883;DHT22;61017;37.812;-122.286;2023-05-10T01:05:38;15.30;93.20
72883;DHT22;61017;37.812;-122.286;2023-05-10T01:07:09;15.30;93.20
72883;DHT22;61017;37.812;-122.286;2023-05-10T01:08:41;15.30;93.20
72883;DHT22;61017;37.812;-122.286;2023-05-10T01:10:13;15.30;93.20
72883;DHT22;61017;37.812;-122.286;2023-05-10T01:11:44;15.30;93.20
72883;DHT22;61017;37.812;-122.286;2023-05-10T01:13:33;15.40;93.30
72883;DHT22;61017;37.812;-122.286;2023-05-10T01:15:07;15.30;93.20
72883;DHT22;61017;37.812;-122.286;2023-05-10T01:16:49;15.30;93.20
72883;DHT22;61017;37.812;-122.286;2023-05-10T01:18:24;15.40;93.30
72883;DHT22;61017;37.812;-122.286;2023-05-10T01:19:57;15.30;93.20
72883;DHT22;61017;37.812;-122.286;2023-05-10T01:25:17;15.30;93.20
72883;DHT22;61017;37.812;-122.286;2023-05-10T01:33:23;15.30;93.10
72883;DHT22;61017;37.812;-122.286;2023-05-10T01:35:00;15.30;93.20
72883;DHT22;61017;37.812;-122.286;2023-05-10T01:36:58;15.40;93.20
72883;DHT22;61017;37.812;-122.286;2023-05-10T01:39:01;15.40;93.20
72883;DHT22;61017;37.812;-122.286;2023-05-10T01:41:06;15.30;93.20
72883;DHT22;61017;37.812;-122.286;2023-05-10T01:42:40;15.40;93.20
72883;DHT22;61017;37.812;-122.286;2023-05-10T01:46:35;15.40;93.20
72883;DHT22;61017;37.812;-122.286;2023-05-10T01:48:09;15.30;93.10
72883;DHT22;61017;37.812;-122.286;2023-05-10T01:49:51;15.40;93.20
72883;DHT22;61017;37.812;-122.286;2023-05-10T01:51:33;15.30;93.10
72883;DHT22;61017;37.812;-122.286;2023-05-10T01:53:08;15.40;93.10
72883;DHT22;61017;37.812;-122.286;2023-05-10T01:54:51;15.40;93.20
72883;DHT22;61017;37.812;-122.286;2023-05-10T01:56:26;15.30;93.10
72883;DHT22;61017;37.812;-122.286;2023-05-10T01:58:08;15.40;93.10
72883;DHT22;61017;37.812;-122.286;2023-05-10T01:59:43;15.40;93.20
72883;DHT22;61017;37.812;-122.286;2023-05-10T02:01:17;15.40;93.10
72883;DHT22;61017;37.812;-122.286;2023-05-10T02:02:51;15.30;93.10
72883;DHT22;61017;37.812;-122.286;2023-05-10T02:04:23;15.30;93.10
72883;DHT22;61017;37.812;-122.286;2023-05-10T02:05:56;15.40;93.10
72883;DHT22;61017;37.812;-122.286;2023-05-10T02:07:29;15.40;93.50
72883;DHT22;61017;37.812;-122.286;2023-05-10T02:09:01;15.40;93.10
72883;DHT22;61017;37.812;-122.286;2023-05-10T02:10:34;15.40;93.10
72883;DHT22;61017;37.812;-122.286;2023-05-10T02:12:06;15.40;93.10
72883;DHT22;61017;37.812;-122.286;2023-05-10T02:13:38;15.30;93.10
72883;DHT22;61017;37.812;-122.286;2023-05-10T02:15:12;15.40;93.10
72883;DHT22;61017;37.812;-122.286;2023-05-10T02:16:46;15.40;93.10
72883;DHT22;61017;37.812;-122.286;2023-05-10T02:18:18;15.40;93.10
72883;DHT22;61017;37.812;-122.286;2023-05-10T02:19:51;15.40;93.10
72883;DHT22;61017;37.812;-122.286;2023-05-10T02:21:24;15.30;93.00
72883;DHT22;61017;37.812;-122.286;2023-05-10T02:22:57;15.30;93.10
72883;DHT22;61017;37.812;-122.286;2023-05-10T02:24:30;15.40;93.10
72883;DHT22;61017;37.812;-122.286;2023-05-10T02:26:04;15.30;93.10
72883;DHT22;61017;37.812;-122.286;2023-05-10T02:27:37;15.40;93.10
72883;DHT22;61017;37.812;-122.286;2023-05-10T02:29:10;15.40;93.10
72883;DHT22;61017;37.812;-122.286;2023-05-10T02:30:43;15.40;93.10
72883;DHT22;61017;37.812;-122.286;2023-05-10T02:32:14;15.40;93.10
72883;DHT22;61017;37.812;-122.286;2023-05-10T02:33:47;15.40;93.10
72883;DHT22;61017;37.812;-122.286;2023-05-10T02:35:19;15.40;93.20
72883;DHT22;61017;37.812;-122.286;2023-05-10T02:36:52;15.30;93.10
72883;DHT22;61017;37.812;-122.286;2023-05-10T02:38:24;15.40;93.10
72883;DHT22;61017;37.812;-122.286;2023-05-10T02:39:59;15.40;93.20
72883;DHT22;61017;37.812;-122.286;2023-05-10T02:41:32;15.40;93.20
72883;DHT22;61017;37.812;-122.286;2023-05-10T02:43:04;15.40;93.50
72883;DHT22;61017;37.812;-122.286;2023-05-10T02:44:38;15.30;93.10
72883;DHT22;61017;37.812;-122.286;2023-05-10T02:46:12;15.40;93.20
72883;DHT22;61017;37.812;-122.286;2023-05-10T02:47:47;15.40;93.20
72883;DHT22;61017;37.812;-122.286;2023-05-10T02:49:19;15.30;93.10
72883;DHT22;61017;37.812;-122.286;2023-05-10T02:50:52;15.40;93.20
72883;DHT22;61017;37.812;-122.286;2023-05-10T02:52:28;15.40;93.20
72883;DHT22;61017;37.812;-122.286;2023-05-10T02:54:07;15.30;93.10
72883;DHT22;61017;37.812;-122.286;2023-05-10T02:55:44;15.40;93.20
72883;DHT22;61017;37.812;-122.286;2023-05-10T02:57:22;15.40;93.20
72883;DHT22;61017;37.812;-122.286;2023-05-10T02:58:56;15.40;93.20
72883;DHT22;61017;37.812;-122.286;2023-05-10T03:00:28;15.40;93.20
72883;DHT22;61017;37.812;-122.286;2023-05-10T03:02:00;15.40;93.20
72883;DHT22;61017;37.812;-122.286;2023-05-10T03:03:31;15.40;93.20
72883;DHT22;61017;37.812;-122.286;2023-05-10T03:05:03;15.40;93.20
72883;DHT22;61017;37.812;-122.286;2023-05-10T03:06:35;15.40;93.20
72883;DHT22;61017;37.812;-122.286;2023-05-10T03:08:12;15.40;93.20
72883;DHT22;61017;37.812;-122.286;2023-05-10T03:09:47;15.30;93.20
72883;DHT22;61017;37.812;-122.286;2023-05-10T03:17:29;15.40;93.20
72883;DHT22;61017;37.812;-122.286;2023-05-10T03:19:06;15.40;93.20
72883;DHT22;61017;37.812;-122.286;2023-05-10T03:20:47;15.40;93.10
72883;DHT22;61017;37.812;-122.286;2023-05-10T03:22:34;15.40;93.10
72883;DHT22;61017;37.812;-122.286;2023-05-10T03:24:09;15.30;93.10
72883;DHT22;61017;37.812;-122.286;2023-05-10T03:25:44;15.40;93.10
72883;DHT22;61017;37.812;-122.286;2023-05-10T03:27:18;15.30;93.10
72883;DHT22;61017;37.812;-122.286;2023-05-10T03:28:50;15.30;93.10
72883;DHT22;61017;37.812;-122.286;2023-05-10T03:30:22;15.40;93.10
72883;DHT22;61017;37.812;-122.286;2023-05-10T03:31:55;15.40;93.10
72883;DHT22;61017;37.812;-122.286;2023-05-10T03:33:27;15.40;93.10
72883;DHT22;61017;37.812;-122.286;2023-05-10T03:34:59;15.40;93.10
72883;DHT22;61017;37.812;-122.286;2023-05-10T03:36:31;15.30;93.10
72883;DHT22;61017;37.812;-122.286;2023-05-10T03:38:03;15.30;93.10
72883;DHT22;61017;37.812;-122.286;2023-05-10T03:39:34;15.30;93.10
72883;DHT22;61017;37.812;-122.286;2023-05-10T03:41:06;15.40;93.10
72883;DHT22;61017;37.812;-122.286;2023-05-10T03:42:38;15.30;93.10
72883;DHT22;61017;37.812;-122.286;2023-05-10T03:44:09;15.30;93.00
72883;DHT22;61017;37.812;-122.286;2023-05-10T03:45:41;15.30;93.00
72883;DHT22;61017;37.812;-122.286;2023-05-10T03:47:12;15.30;93.00
72883;DHT22;61017;37.812;-122.286;2023-05-10T03:48:44;15.30;93.00
72883;DHT22;61017;37.812;-122.286;2023-05-10T03:50:15;15.30;93.00
72883;DHT22;61017;37.812;-122.286;2023-05-10T03:51:47;15.30;93.00
72883;DHT22;61017;37.812;-122.286;2023-05-10T03:53:22;15.30;93.00
72883;DHT22;61017;37.812;-122.286;2023-05-10T03:54:53;15.40;93.00
72883;DHT22;61017;37.812;-122.286;2023-05-10T03:56:25;15.30;93.00
72883;DHT22;61017;37.812;-122.286;2023-05-10T03:57:56;15.30;93.00
72883;DHT22;61017;37.812;-122.286;2023-05-10T03:59:28;15.30;93.00
72883;DHT22;61017;37.812;-122.286;2023-05-10T04:00:59;15.30;93.00
72883;DHT22;61017;37.812;-122.286;2023-05-10T04:02:31;15.30;93.00
72883;DHT22;61017;37.812;-122.286;2023-05-10T04:04:03;15.30;93.00
72883;DHT22;61017;37.812;-122.286;2023-05-10T04:05:35;15.30;93.00
72883;DHT22;61017;37.812;-122.286;2023-05-10T04:07:09;15.30;92.90
72883;DHT22;61017;37.812;-122.286;2023-05-10T04:08:41;15.30;92.90
72883;DHT22;61017;37.812;-122.286;2023-05-10T04:10:12;15.30;92.90
72883;DHT22;61017;37.812;-122.286;2023-05-10T04:11:44;15.30;92.90
72883;DHT22;61017;37.812;-122.286;2023-05-10T04:13:15;15.30;92.90
72883;DHT22;61017;37.812;-122.286;2023-05-10T04:14:47;15.30;92.90
72883;DHT22;61017;37.812;-122.286;2023-05-10T04:16:19;15.30;92.90
72883;DHT22;61017;37.812;-122.286;2023-05-10T04:17:51;15.30;92.90
72883;DHT22;61017;37.812;-122.286;2023-05-10T04:19:29;15.30;92.90
72883;DHT22;61017;37.812;-122.286;2023-05-10T04:21:01;15.30;92.90
72883;DHT22;61017;37.812;-122.286;2023-05-10T04:22:32;15.30;92.90
72883;DHT22;61017;37.812;-122.286;2023-05-10T04:24:04;15.30;92.90
72883;DHT22;61017;37.812;-122.286;2023-05-10T04:25:36;15.30;92.90
72883;DHT22;61017;37.812;-122.286;2023-05-10T04:27:07;15.30;92.90
72883;DHT22;61017;37.812;-122.286;2023-05-10T04:28:39;15.30;92.90
72883;DHT22;61017;37.812;-122.286;2023-05-10T04:30:10;15.30;92.90
72883;DHT22;61017;37.812;-122.286;2023-05-10T04:31:42;15.30;92.90
72883;DHT22;61017;37.812;-122.286;2023-05-10T04:33:13;15.30;92.80
72883;DHT22;61017;37.812;-122.286;2023-05-10T04:34:45;15.30;92.80
72883;DHT22;61017;37.812;-122.286;2023-05-10T04:36:17;15.30;92.90
72883;DHT22;61017;37.812;-122.286;2023-05-10T04:37:49;15.30;92.80
72883;DHT22;61017;37.812;-122.286;2023-05-10T04:39:20;15.30;92.80
72883;DHT22;61017;37.812;-122.286;2023-05-10T04:40:52;15.30;93.00
72883;DHT22;61017;37.812;-122.286;2023-05-10T04:42:24;15.30;92.80
72883;DHT22;61017;37.812;-122.286;2023-05-10T04:43:55;15.30;92.80
72883;DHT22;61017;37.812;-122.286;2023-05-10T04:45:27;15.30;92.80
72883;DHT22;61017;37.812;-122.286;2023-05-10T04:47:02;15.30;92.80
72883;DHT22;61017;37.812;-122.286;2023-05-10T04:48:33;15.30;92.80
72883;DHT22;61017;37.812;-122.286;2023-05-10T04:50:05;15.30;92.80
72883;DHT22;61017;37.812;-122.286;2023-05-10T04:51:37;15.30;92.80
72883;DHT22;61017;37.812;-122.286;2023-05-10T04:53:08;15.30;92.80
72883;DHT22;61017;37.812;-122.286;2023-05-10T04:54:40;15.30;92.80
72883;DHT22;61017;37.812;-122.286;2023-05-10T04:56:12;15.30;92.80
72883;DHT22;61017;37.812;-122.286;2023-05-10T04:57:43;15.30;92.80
72883;DHT22;61017;37.812;-122.286;2023-05-10T04:59:15;15.30;92.80
72883;DHT22;61017;37.812;-122.286;2023-05-10T05:00:46;15.30;92.80
72883;DHT22;61017;37.812;-122.286;2023-05-10T05:02:18;15.30;92.80
72883;DHT22;61017;37.812;-122.286;2023-05-10T05:03:49;15.30;92.80
72883;DHT22;61017;37.812;-122.286;2023-05-10T05:05:24;15.30;92.70
72883;DHT22;61017;37.812;-122.286;2023-05-10T05:06:55;15.30;92.80
72883;DHT22;61017;37.812;-122.286;2023-05-10T05:08:27;15.30;92.70
72883;DHT22;61017;37.812;-122.286;2023-05-10T05:09:58;15.30;92.70
72883;DHT22;61017;37.812;-122.286;2023-05-10T05:11:30;15.30;92.70
72883;DHT22;61017;37.812;-122.286;2023-05-10T05:13:02;15.30;92.70
72883;DHT22;61017;37.812;-122.286;2023-05-10T05:14:33;15.30;92.70
72883;DHT22;61017;37.812;-122.286;2023-05-10T05:16:05;15.30;92.70
72883;DHT22;61017;37.812;-122.286;2023-05-10T05:17:37;15.30;92.70
72883;DHT22;61017;37.812;-122.286;2023-05-10T05:19:08;15.30;92.70
72883;DHT22;61017;37.812;-122.286;2023-05-10T05:20:40;15.30;92.70
72883;DHT22;61017;37.812;-122.286;2023-05-10T05:22:12;15.30;92.70
72883;DHT22;61017;37.812;-122.286;2023-05-10T05:23:43;15.30;92.70
72883;DHT22;61017;37.812;-122.286;2023-05-10T05:25:16;15.30;92.60
72883;DHT22;61017;37.812;-122.286;2023-05-10T05:26:47;15.40;92.70
72883;DHT22;61017;37.812;-122.286;2023-05-10T05:28:20;15.30;92.70
72883;DHT22;61017;37.812;-122.286;2023-05-10T05:29:55;15.30;92.60
72883;DHT22;61017;37.812;-122.286;2023-05-10T05:31:28;15.30;92.70
72883;DHT22;61017;37.812;-122.286;2023-05-10T05:32:59;15.30;92.70
72883;DHT22;61017;37.812;-122.286;2023-05-10T05:34:31;15.30;92.70
72883;DHT22;61017;37.812;-122.286;2023-05-10T05:36:04;15.30;92.60
72883;DHT22;61017;37.812;-122.286;2023-05-10T05:37:36;15.30;92.60
72883;DHT22;61017;37.812;-122.286;2023-05-10T05:39:07;15.30;92.70
72883;DHT22;61017;37.812;-122.286;2023-05-10T05:40:39;15.30;92.60
72883;DHT22;61017;37.812;-122.286;2023-05-10T05:42:11;15.30;92.70
72883;DHT22;61017;37.812;-122.286;2023-05-10T05:43:43;15.30;92.60
72883;DHT22;61017;37.812;-122.286;2023-05-10T05:45:15;15.30;92.60
72883;DHT22;61017;37.812;-122.286;2023-05-10T05:46:46;15.30;92.60
72883;DHT22;61017;37.812;-122.286;2023-05-10T05:48:18;15.30;92.60
72883;DHT22;61017;37.812;-122.286;2023-05-10T05:49:49;15.30;92.60
72883;DHT22;61017;37.812;-122.286;2023-05-10T05:51:21;15.30;92.60
72883;DHT22;61017;37.812;-122.286;2023-05-10T05:52:52;15.30;92.60
72883;DHT22;61017;37.812;-122.286;2023-05-10T05:54:24;15.30;92.60
72883;DHT22;61017;37.812;-122.286;2023-05-10T05:55:57;15.30;92.60
72883;DHT22;61017;37.812;-122.286;2023-05-10T05:57:29;15.30;92.60
72883;DHT22;61017;37.812;-122.286;2023-05-10T05:59:01;15.30;92.60
72883;DHT22;61017;37.812;-122.286;2023-05-10T06:00:33;15.30;92.60
72883;DHT22;61017;37.812;-122.286;2023-05-10T06:02:04;15.30;92.60
72883;DHT22;61017;37.812;-122.286;2023-05-10T06:03:36;15.30;92.60
72883;DHT22;61017;37.812;-122.286;2023-05-10T06:05:08;15.30;92.60
72883;DHT22;61017;37.812;-122.286;2023-05-10T06:06:40;15.30;92.50
72883;DHT22;61017;37.812;-122.286;2023-05-10T06:08:12;15.30;92.60
72883;DHT22;61017;37.812;-122.286;2023-05-10T06:09:43;15.30;92.50
72883;DHT22;61017;37.812;-122.286;2023-05-10T06:11:15;15.30;92.50
72883;DHT22;61017;37.812;-122.286;2023-05-10T06:12:46;15.30;92.50
72883;DHT22;61017;37.812;-122.286;2023-05-10T06:14:19;15.30;92.50
72883;DHT22;61017;37.812;-122.286;2023-05-10T06:15:51;15.30;92.50
72883;DHT22;61017;37.812;-122.286;2023-05-10T06:17:23;15.30;92.50
72883;DHT22;61017;37.812;-122.286;2023-05-10T06:18:54;15.30;92.60
72883;DHT22;61017;37.812;-122.286;2023-05-10T06:20:26;15.30;92.50
72883;DHT22;61017;37.812;-122.286;2023-05-10T06:21:57;15.30;92.50
72883;DHT22;61017;37.812;-122.286;2023-05-10T06:23:29;15.30;92.50
72883;DHT22;61017;37.812;-122.286;2023-05-10T06:25:01;15.30;92.50
72883;DHT22;61017;37.812;-122.286;2023-05-10T06:26:35;15.30;92.50
72883;DHT22;61017;37.812;-122.286;2023-05-10T06:28:07;15.30;92.50
72883;DHT22;61017;37.812;-122.286;2023-05-10T06:29:38;15.30;92.50
72883;DHT22;61017;37.812;-122.286;2023-05-10T06:31:10;15.30;92.50
72883;DHT22;61017;37.812;-122.286;2023-05-10T06:32:42;15.30;92.50
72883;DHT22;61017;37.812;-122.286;2023-05-10T06:34:13;15.30;92.40
72883;DHT22;61017;37.812;-122.286;2023-05-10T06:35:45;15.30;92.40
72883;DHT22;61017;37.812;-122.286;2023-05-10T06:37:16;15.30;92.50
72883;DHT22;61017;37.812;-122.286;2023-05-10T06:38:48;15.30;92.40
72883;DHT22;61017;37.812;-122.286;2023-05-10T06:40:20;15.30;92.50
72883;DHT22;61017;37.812;-122.286;2023-05-10T06:41:51;15.30;92.40
72883;DHT22;61017;37.812;-122.286;2023-05-10T06:43:23;15.30;92.50
72883;DHT22;61017;37.812;-122.286;2023-05-10T06:44:54;15.30;92.40
72883;DHT22;61017;37.812;-122.286;2023-05-10T06:46:26;15.30;92.40
72883;DHT22;61017;37.812;-122.286;2023-05-10T06:48:01;15.30;92.40
72883;DHT22;61017;37.812;-122.286;2023-05-10T06:49:34;15.30;92.40
72883;DHT22;61017;37.812;-122.286;2023-05-10T06:51:06;15.30;92.40
72883;DHT22;61017;37.812;-122.286;2023-05-10T06:52:38;15.30;92.40
72883;DHT22;61017;37.812;-122.286;2023-05-10T06:54:09;15.30;92.40
72883;DHT22;61017;37.812;-122.286;2023-05-10T06:55:41;15.30;92.40
72883;DHT22;61017;37.812;-122.286;2023-05-10T06:57:13;15.30;92.40
72883;DHT22;61017;37.812;-122.286;2023-05-10T06:58:44;15.30;92.40
72883;DHT22;61017;37.812;-122.286;2023-05-10T07:00:17;15.30;92.40
72883;DHT22;61017;37.812;-122.286;2023-05-10T07:01:48;15.30;92.40
72883;DHT22;61017;37.812;-122.286;2023-05-10T07:03:20;15.30;92.30
72883;DHT22;61017;37.812;-122.286;2023-05-10T07:04:52;15.30;92.40
72883;DHT22;61017;37.812;-122.286;2023-05-10T07:06:23;15.30;92.30
72883;DHT22;61017;37.812;-122.286;2023-05-10T07:07:55;15.30;92.30
72883;DHT22;61017;37.812;-122.286;2023-05-10T07:09:26;15.30;92.30
72883;DHT22;61017;37.812;-122.286;2023-05-10T07:11:05;15.30;92.30
72883;DHT22;61017;37.812;-122.286;2023-05-10T07:12:37;15.30;92.30
72883;DHT22;61017;37.812;-122.286;2023-05-10T07:14:08;15.30;92.30
72883;DHT22;61017;37.812;-122.286;2023-05-10T07:15:40;15.30;92.30
72883;DHT22;61017;37.812;-122.286;2023-05-10T07:17:12;15.30;92.30
72883;DHT22;61017;37.812;-122.286;2023-05-10T07:18:43;15.30;92.30
72883;DHT22;61017;37.812;-122.286;2023-05-10T07:20:15;15.30;92.30
72883;DHT22;61017;37.812;-122.286;2023-05-10T07:21:46;15.30;92.30
72883;DHT22;61017;37.812;-122.286;2023-05-10T07:23:18;15.30;92.30
72883;DHT22;61017;37.812;-122.286;2023-05-10T07:24:52;15.30;92.60
72883;DHT22;61017;37.812;-122.286;2023-05-10T07:26:25;15.30;92.30
72883;DHT22;61017;37.812;-122.286;2023-05-10T07:27:56;15.30;92.30
72883;DHT22;61017;37.812;-122.286;2023-05-10T07:29:28;15.30;92.30
72883;DHT22;61017;37.812;-122.286;2023-05-10T07:30:59;15.30;92.20
72883;DHT22;61017;37.812;-122.286;2023-05-10T07:32:31;15.30;92.20
72883;DHT22;61017;37.812;-122.286;2023-05-10T07:34:02;15.30;92.20
72883;DHT22;61017;37.812;-122.286;2023-05-10T07:35:34;15.30;92.30
72883;DHT22;61017;37.812;-122.286;2023-05-10T07:37:06;15.30;92.30
72883;DHT22;61017;37.812;-122.286;2023-05-10T07:38:37;15.30;92.20
72883;DHT22;61017;37.812;-122.286;2023-05-10T07:40:09;15.30;92.20
72883;DHT22;61017;37.812;-122.286;2023-05-10T07:41:41;15.30;92.20
72883;DHT22;61017;37.812;-122.286;2023-05-10T07:43:12;15.30;92.50
72883;DHT22;61017;37.812;-122.286;2023-05-10T07:44:44;15.30;92.20
72883;DHT22;61017;37.812;-122.286;2023-05-10T07:46:15;15.30;92.30
72883;DHT22;61017;37.812;-122.286;2023-05-10T07:47:47;15.30;92.20
72883;DHT22;61017;37.812;-122.286;2023-05-10T07:49:19;15.30;92.20
72883;DHT22;61017;37.812;-122.286;2023-05-10T07:50:50;15.30;92.20
72883;DHT22;61017;37.812;-122.286;2023-05-10T07:52:22;15.30;92.20
72883;DHT22;61017;37.812;-122.286;2023-05-10T07:53:53;15.30;92.20
72883;DHT22;61017;37.812;-122.286;2023-05-10T07:55:25;15.30;92.30
72883;DHT22;61017;37.812;-122.286;2023-05-10T07:56:56;15.30;92.20
72883;DHT22;61017;37.812;-122.286;2023-05-10T07:58:28;15.30;92.20
72883;DHT22;61017;37.812;-122.286;2023-05-10T08:00:00;15.30;92.20
72883;DHT22;61017;37.812;-122.286;2023-05-10T08:01:33;15.30;92.20
72883;DHT22;61017;37.812;-122.286;2023-05-10T08:03:05;15.30;92.20
72883;DHT22;61017;37.812;-122.286;2023-05-10T08:04:36;15.30;92.20
72883;DHT22;61017;37.812;-122.286;2023-05-10T08:06:08;15.30;92.20
72883;DHT22;61017;37.812;-122.286;2023-05-10T08:07:39;15.30;92.20
72883;DHT22;61017;37.812;-122.286;2023-05-10T08:09:11;15.30;92.20
72883;DHT22;61017;37.812;-122.286;2023-05-10T08:10:42;15.30;92.20
72883;DHT22;61017;37.812;-122.286;2023-05-10T08:12:14;15.30;92.20
72883;DHT22;61017;37.812;-122.286;2023-05-10T08:13:46;15.30;92.20
72883;DHT22;61017;37.812;-122.286;2023-05-10T08:15:17;15.30;92.20
72883;DHT22;61017;37.812;-122.286;2023-05-10T08:16:49;15.30;92.20
72883;DHT22;61017;37.812;-122.286;2023-05-10T08:18:21;15.30;92.20
72883;DHT22;61017;37.812;-122.286;2023-05-10T08:19:52;15.30;92.20
72883;DHT22;61017;37.812;-122.286;2023-05-10T08:21:24;15.30;92.20
72883;DHT22;61017;37.812;-122.286;2023-05-10T08:22:55;15.30;92.20
72883;DHT22;61017;37.812;-122.286;2023-05-10T08:24:27;15.30;92.20
72883;DHT22;61017;37.812;-122.286;2023-05-10T08:25:58;15.30;92.20
72883;DHT22;61017;37.812;-122.286;2023-05-10T08:27:30;15.30;92.20
72883;DHT22;61017;37.812;-122.286;2023-05-10T08:29:02;15.30;92.20
72883;DHT22;61017;37.812;-122.286;2023-05-10T08:30:33;15.30;92.20
72883;DHT22;61017;37.812;-122.286;2023-05-10T08:32:05;15.30;92.20
72883;DHT22;61017;37.812;-122.286;2023-05-10T08:33:36;15.30;92.20
72883;DHT22;61017;37.812;-122.286;2023-05-10T08:35:08;15.30;92.20
72883;DHT22;61017;37.812;-122.286;2023-05-10T08:36:40;15.30;92.20
72883;DHT22;61017;37.812;-122.286;2023-05-10T08:38:11;15.30;92.20
72883;DHT22;61017;37.812;-122.286;2023-05-10T08:39:43;15.30;92.10
72883;DHT22;61017;37.812;-122.286;2023-05-10T08:41:15;15.30;92.20
72883;DHT22;61017;37.812;-122.286;2023-05-10T08:43:04;15.30;92.20
72883;DHT22;61017;37.812;-122.286;2023-05-10T08:44:36;15.30;92.20
72883;DHT22;61017;37.812;-122.286;2023-05-10T08:46:09;15.30;92.10
72883;DHT22;61017;37.812;-122.286;2023-05-10T08:47:41;15.30;92.10
72883;DHT22;61017;37.812;-122.286;2023-05-10T08:49:20;15.30;92.20
72883;DHT22;61017;37.812;-122.286;2023-05-10T08:50:58;15.30;92.10
72883;DHT22;61017;37.812;-122.286;2023-05-10T08:52:33;15.20;92.10
72883;DHT22;61017;37.812;-122.286;2023-05-10T08:54:09;15.30;92.20
72883;DHT22;61017;37.812;-122.286;2023-05-10T08:55:42;15.30;92.10
72883;DHT22;61017;37.812;-122.286;2023-05-10T08:57:14;15.30;92.20
72883;DHT22;61017;37.812;-122.286;2023-05-10T08:58:45;15.30;92.10
72883;DHT22;61017;37.812;-122.286;2023-05-10T09:00:18;15.20;92.10
72883;DHT22;61017;37.812;-122.286;2023-05-10T09:01:50;15.20;92.10
72883;DHT22;61017;37.812;-122.286;2023-05-10T09:03:23;15.20;92.10
72883;DHT22;61017;37.812;-122.286;2023-05-10T09:04:54;15.20;92.10
72883;DHT22;61017;37.812;-122.286;2023-05-10T09:06:26;15.20;92.10
72883;DHT22;61017;37.812;-122.286;2023-05-10T09:07:58;15.20;92.10
72883;DHT22;61017;37.812;-122.286;2023-05-10T09:09:30;15.30;92.10
72883;DHT22;61017;37.812;-122.286;2023-05-10T09:11:02;15.20;92.00
72883;DHT22;61017;37.812;-122.286;2023-05-10T09:12:34;15.20;92.10
72883;DHT22;61017;37.812;-122.286;2023-05-10T09:14:06;15.20;92.00
72883;DHT22;61017;37.812;-122.286;2023-05-10T09:15:38;15.20;92.00
72883;DHT22;61017;37.812;-122.286;2023-05-10T09:17:10;15.30;92.10
72883;DHT22;61017;37.812;-122.286;2023-05-10T09:18:41;15.20;92.10
72883;DHT22;61017;37.812;-122.286;2023-05-10T09:20:13;15.20;92.00
72883;DHT22;61017;37.812;-122.286;2023-05-10T09:21:44;15.20;92.00
72883;DHT22;61017;37.812;-122.286;2023-05-10T09:23:16;15.30;92.10
72883;DHT22;61017;37.812;-122.286;2023-05-10T09:24:48;15.20;92.00
72883;DHT22;61017;37.812;-122.286;2023-05-10T09:26:22;15.30;92.10
72883;DHT22;61017;37.812;-122.286;2023-05-10T09:27:55;15.20;92.00
72883;DHT22;61017;37.812;-122.286;2023-05-10T09:29:27;15.20;92.00
72883;DHT22;61017;37.812;-122.286;2023-05-10T09:31:09;15.20;92.00
72883;DHT22;61017;37.812;-122.286;2023-05-10T09:32:43;15.20;92.00
72883;DHT22;61017;37.812;-122.286;2023-05-10T09:34:19;15.20;92.00
72883;DHT22;61017;37.812;-122.286;2023-05-10T09:35:52;15.20;92.00
72883;DHT22;61017;37.812;-122.286;2023-05-10T09:37:29;15.20;92.00
72883;DHT22;61017;37.812;-122.286;2023-05-10T09:39:01;15.20;92.00